sensor_id;sensor_type;location;lat;lon;timestamp;P1;durP1;ratioP1;P2;durP2;ratioP2
7563;SDS011;3823;53.586;10.040;2023-02-01T00:00:33;23.27;;;4.40;;
7563;SDS011;3823;53.586;10.040;2023-02-01T00:02:59;13.98;;;3.78;;
7563;SDS011;3823;53.586;10.040;2023-02-01T00:05:25;11.85;;;3.30;;
7563;SDS011;3823;53.586;10.040;2023-02-01T00:07:51;14.70;;;3.45;;
7563;SDS011;3823;53.586;10.040;2023-02-01T00:10:16;23.80;;;4.65;;
7563;SDS011;3823;53.586;10.040;2023-02-01T00:12:43;16.20;;;3.85;;
7563;SDS011;3823;53.586;10.040;2023-02-01T00:15:09;15.52;;;3.42;;
7563;SDS011;3823;53.586;10.040;2023-02-01T00:17:35;17.20;;;4.97;;
7563;SDS011;3823;53.586;10.040;2023-02-01T00:20:00;16.30;;;3.92;;
7563;SDS011;3823;53.586;10.040;2023-02-01T00:22:27;24.30;;;4.55;;
7563;SDS011;3823;53.586;10.040;2023-02-01T00:24:52;37.28;;;4.78;;
7563;SDS011;3823;53.586;10.040;2023-02-01T00:27:18;28.20;;;5.40;;
7563;SDS011;3823;53.586;10.040;2023-02-01T00:29:46;14.00;;;3.55;;
7563;SDS011;3823;53.586;10.040;2023-02-01T00:32:12;24.25;;;4.65;;
7563;SDS011;3823;53.586;10.040;2023-02-01T00:34:37;21.95;;;5.60;;
7563;SDS011;3823;53.586;10.040;2023-02-01T00:37:03;12.82;;;3.42;;
7563;SDS011;3823;53.586;10.040;2023-02-01T00:39:29;13.10;;;4.18;;
7563;SDS011;3823;53.586;10.040;2023-02-01T00:41:54;16.60;;;5.53;;
7563;SDS011;3823;53.586;10.040;2023-02-01T00:44:20;15.95;;;3.20;;
7563;SDS011;3823;53.586;10.040;2023-02-01T00:46:45;27.88;;;4.30;;
7563;SDS011;3823;53.586;10.040;2023-02-01T00:49:11;19.45;;;3.92;;
7563;SDS011;3823;53.586;10.040;2023-02-01T00:51:36;18.88;;;5.07;;
7563;SDS011;3823;53.586;10.040;2023-02-01T00:54:02;12.68;;;4.15;;
7563;SDS011;3823;53.586;10.040;2023-02-01T00:56:28;21.83;;;3.80;;
7563;SDS011;3823;53.586;10.040;2023-02-01T00:58:54;30.67;;;5.25;;
7563;SDS011;3823;53.586;10.040;2023-02-01T01:01:23;15.38;;;3.42;;
7563;SDS011;3823;53.586;10.040;2023-02-01T01:03:51;19.83;;;5.82;;
7563;SDS011;3823;53.586;10.040;2023-02-01T01:06:20;19.48;;;4.50;;
7563;SDS011;3823;53.586;10.040;2023-02-01T01:08:47;21.77;;;6.50;;
7563;SDS011;3823;53.586;10.040;2023-02-01T01:11:17;25.67;;;5.40;;
7563;SDS011;3823;53.586;10.040;2023-02-01T01:13:46;24.02;;;4.97;;
7563;SDS011;3823;53.586;10.040;2023-02-01T01:16:12;15.75;;;4.63;;
7563;SDS011;3823;53.586;10.040;2023-02-01T01:18:38;23.77;;;5.20;;
7563;SDS011;3823;53.586;10.040;2023-02-01T01:21:04;22.27;;;4.75;;
7563;SDS011;3823;53.586;10.040;2023-02-01T01:23:31;29.08;;;5.40;;
7563;SDS011;3823;53.586;10.040;2023-02-01T01:25:56;29.10;;;5.20;;
7563;SDS011;3823;53.586;10.040;2023-02-01T01:28:22;21.75;;;4.55;;
7563;SDS011;3823;53.586;10.040;2023-02-01T01:30:48;19.63;;;4.47;;
7563;SDS011;3823;53.586;10.040;2023-02-01T01:33:13;30.85;;;4.95;;
7563;SDS011;3823;53.586;10.040;2023-02-01T01:35:39;25.02;;;4.43;;
7563;SDS011;3823;53.586;10.040;2023-02-01T01:38:05;15.80;;;4.82;;
7563;SDS011;3823;53.586;10.040;2023-02-01T01:40:30;29.92;;;5.25;;
7563;SDS011;3823;53.586;10.040;2023-02-01T01:42:56;23.23;;;4.85;;
7563;SDS011;3823;53.586;10.040;2023-02-01T01:45:27;20.80;;;4.80;;
7563;SDS011;3823;53.586;10.040;2023-02-01T01:47:54;22.63;;;5.28;;
7563;SDS011;3823;53.586;10.040;2023-02-01T01:50:27;21.42;;;5.32;;
7563;SDS011;3823;53.586;10.040;2023-02-01T01:52:57;32.10;;;5.88;;
7563;SDS011;3823;53.586;10.040;2023-02-01T01:55:25;23.17;;;5.22;;
7563;SDS011;3823;53.586;10.040;2023-02-01T01:57:59;21.80;;;5.60;;
7563;SDS011;3823;53.586;10.040;2023-02-01T02:00:35;21.45;;;5.30;;
7563;SDS011;3823;53.586;10.040;2023-02-01T02:03:14;20.95;;;4.50;;
7563;SDS011;3823;53.586;10.040;2023-02-01T02:05:47;34.17;;;6.15;;
7563;SDS011;3823;53.586;10.040;2023-02-01T02:08:15;24.70;;;5.68;;
7563;SDS011;3823;53.586;10.040;2023-02-01T02:10:45;17.02;;;4.50;;
7563;SDS011;3823;53.586;10.040;2023-02-01T02:13:36;22.40;;;4.90;;
7563;SDS011;3823;53.586;10.040;2023-02-01T02:21:36;26.33;;;5.75;;
7563;SDS011;3823;53.586;10.040;2023-02-01T02:35:07;16.35;;;4.45;;
7563;SDS011;3823;53.586;10.040;2023-02-01T02:38:05;22.27;;;6.38;;
7563;SDS011;3823;53.586;10.040;2023-02-01T02:40:49;23.77;;;6.53;;
7563;SDS011;3823;53.586;10.040;2023-02-01T02:43:58;12.60;;;4.18;;
7563;SDS011;3823;53.586;10.040;2023-02-01T02:46:46;33.00;;;5.25;;
7563;SDS011;3823;53.586;10.040;2023-02-01T02:49:34;21.42;;;5.47;;
7563;SDS011;3823;53.586;10.040;2023-02-01T02:54:55;23.55;;;7.60;;
7563;SDS011;3823;53.586;10.040;2023-02-01T02:57:28;24.08;;;5.90;;
7563;SDS011;3823;53.586;10.040;2023-02-01T03:00:16;19.13;;;4.57;;
7563;SDS011;3823;53.586;10.040;2023-02-01T03:03:03;27.35;;;4.85;;
7563;SDS011;3823;53.586;10.040;2023-02-01T03:05:49;15.73;;;5.07;;
7563;SDS011;3823;53.586;10.040;2023-02-01T03:08:19;23.77;;;4.38;;
7563;SDS011;3823;53.586;10.040;2023-02-01T03:11:04;21.95;;;5.30;;
7563;SDS011;3823;53.586;10.040;2023-02-01T03:13:41;20.00;;;5.45;;
7563;SDS011;3823;53.586;10.040;2023-02-01T03:16:25;27.83;;;5.43;;
7563;SDS011;3823;53.586;10.040;2023-02-01T03:19:18;24.70;;;6.75;;
7563;SDS011;3823;53.586;10.040;2023-02-01T03:21:59;20.83;;;5.43;;
7563;SDS011;3823;53.586;10.040;2023-02-01T03:24:33;29.73;;;4.88;;
7563;SDS011;3823;53.586;10.040;2023-02-01T03:29:51;18.27;;;4.40;;
7563;SDS011;3823;53.586;10.040;2023-02-01T03:32:31;24.38;;;4.40;;
7563;SDS011;3823;53.586;10.040;2023-02-01T03:35:17;17.10;;;4.00;;
7563;SDS011;3823;53.586;10.040;2023-02-01T03:37:46;15.27;;;3.47;;
7563;SDS011;3823;53.586;10.040;2023-02-01T03:40:12;7.10;;;3.40;;
7563;SDS011;3823;53.586;10.040;2023-02-01T03:42:42;16.02;;;2.90;;
7563;SDS011;3823;53.586;10.040;2023-02-01T03:45:13;9.48;;;3.25;;
7563;SDS011;3823;53.586;10.040;2023-02-01T03:47:46;12.55;;;1.85;;
7563;SDS011;3823;53.586;10.040;2023-02-01T03:50:16;16.60;;;3.25;;
7563;SDS011;3823;53.586;10.040;2023-02-01T03:55:16;10.35;;;2.95;;
7563;SDS011;3823;53.586;10.040;2023-02-01T03:57:50;11.70;;;2.85;;
7563;SDS011;3823;53.586;10.040;2023-02-01T04:00:26;13.35;;;3.13;;
7563;SDS011;3823;53.586;10.040;2023-02-01T04:02:52;11.30;;;2.92;;
7563;SDS011;3823;53.586;10.040;2023-02-01T04:05:18;17.20;;;3.25;;
7563;SDS011;3823;53.586;10.040;2023-02-01T04:07:45;12.95;;;2.88;;
7563;SDS011;3823;53.586;10.040;2023-02-01T04:10:10;11.38;;;2.22;;
7563;SDS011;3823;53.586;10.040;2023-02-01T04:12:36;19.02;;;4.05;;
7563;SDS011;3823;53.586;10.040;2023-02-01T04:15:02;10.20;;;3.22;;
7563;SDS011;3823;53.586;10.040;2023-02-01T04:17:29;12.82;;;3.53;;
7563;SDS011;3823;53.586;10.040;2023-02-01T04:19:55;19.50;;;3.08;;
7563;SDS011;3823;53.586;10.040;2023-02-01T04:22:20;13.85;;;3.42;;
7563;SDS011;3823;53.586;10.040;2023-02-01T04:24:46;14.70;;;2.85;;
7563;SDS011;3823;53.586;10.040;2023-02-01T04:27:12;11.75;;;4.15;;
7563;SDS011;3823;53.586;10.040;2023-02-01T04:29:38;20.77;;;4.20;;
7563;SDS011;3823;53.586;10.040;2023-02-01T04:32:03;18.10;;;3.00;;
7563;SDS011;3823;53.586;10.040;2023-02-01T04:34:29;13.90;;;3.92;;
7563;SDS011;3823;53.586;10.040;2023-02-01T04:36:55;15.23;;;3.22;;
7563;SDS011;3823;53.586;10.040;2023-02-01T04:39:20;13.73;;;3.00;;
7563;SDS011;3823;53.586;10.040;2023-02-01T04:41:46;17.95;;;4.95;;
7563;SDS011;3823;53.586;10.040;2023-02-01T04:44:16;6.57;;;2.25;;
7563;SDS011;3823;53.586;10.040;2023-02-01T04:46:42;6.43;;;2.10;;
7563;SDS011;3823;53.586;10.040;2023-02-01T04:49:09;8.35;;;2.45;;
7563;SDS011;3823;53.586;10.040;2023-02-01T04:51:35;14.07;;;3.42;;
7563;SDS011;3823;53.586;10.040;2023-02-01T04:54:01;14.85;;;1.75;;
7563;SDS011;3823;53.586;10.040;2023-02-01T04:56:27;9.75;;;2.38;;
7563;SDS011;3823;53.586;10.040;2023-02-01T04:58:52;9.10;;;2.97;;
7563;SDS011;3823;53.586;10.040;2023-02-01T05:01:18;7.00;;;2.13;;
7563;SDS011;3823;53.586;10.040;2023-02-01T05:03:43;9.30;;;2.08;;
7563;SDS011;3823;53.586;10.040;2023-02-01T05:06:09;14.55;;;2.30;;
7563;SDS011;3823;53.586;10.040;2023-02-01T05:08:35;5.50;;;2.03;;
7563;SDS011;3823;53.586;10.040;2023-02-01T05:11:00;5.80;;;1.25;;
7563;SDS011;3823;53.586;10.040;2023-02-01T05:13:29;4.43;;;0.98;;
7563;SDS011;3823;53.586;10.040;2023-02-01T05:16:13;4.22;;;0.70;;
7563;SDS011;3823;53.586;10.040;2023-02-01T05:18:39;4.18;;;0.85;;
7563;SDS011;3823;53.586;10.040;2023-02-01T05:21:05;3.38;;;1.38;;
7563;SDS011;3823;53.586;10.040;2023-02-01T05:23:30;2.92;;;0.82;;
7563;SDS011;3823;53.586;10.040;2023-02-01T05:26:00;3.83;;;1.10;;
7563;SDS011;3823;53.586;10.040;2023-02-01T05:28:26;4.95;;;0.88;;
7563;SDS011;3823;53.586;10.040;2023-02-01T05:30:53;1.85;;;0.77;;
7563;SDS011;3823;53.586;10.040;2023-02-01T05:33:19;3.97;;;0.50;;
7563;SDS011;3823;53.586;10.040;2023-02-01T05:35:44;2.67;;;0.80;;
7563;SDS011;3823;53.586;10.040;2023-02-01T05:38:10;2.58;;;0.55;;
7563;SDS011;3823;53.586;10.040;2023-02-01T05:40:35;3.83;;;1.33;;
7563;SDS011;3823;53.586;10.040;2023-02-01T05:43:01;3.58;;;0.95;;
7563;SDS011;3823;53.586;10.040;2023-02-01T05:45:27;2.08;;;0.70;;
7563;SDS011;3823;53.586;10.040;2023-02-01T05:47:53;2.97;;;0.68;;
7563;SDS011;3823;53.586;10.040;2023-02-01T05:50:18;1.58;;;0.88;;
7563;SDS011;3823;53.586;10.040;2023-02-01T05:52:44;1.40;;;0.60;;
7563;SDS011;3823;53.586;10.040;2023-02-01T05:55:09;1.73;;;0.43;;
7563;SDS011;3823;53.586;10.040;2023-02-01T05:57:35;2.25;;;0.57;;
7563;SDS011;3823;53.586;10.040;2023-02-01T06:00:00;1.33;;;0.45;;
7563;SDS011;3823;53.586;10.040;2023-02-01T06:02:26;3.63;;;0.50;;
7563;SDS011;3823;53.586;10.040;2023-02-01T06:04:52;3.95;;;0.50;;
7563;SDS011;3823;53.586;10.040;2023-02-01T06:07:17;1.00;;;0.60;;
7563;SDS011;3823;53.586;10.040;2023-02-01T06:09:43;1.65;;;0.60;;
7563;SDS011;3823;53.586;10.040;2023-02-01T06:12:09;1.77;;;0.52;;
7563;SDS011;3823;53.586;10.040;2023-02-01T06:14:34;3.35;;;0.90;;
7563;SDS011;3823;53.586;10.040;2023-02-01T06:17:00;1.60;;;0.77;;
7563;SDS011;3823;53.586;10.040;2023-02-01T06:19:25;1.08;;;0.77;;
7563;SDS011;3823;53.586;10.040;2023-02-01T06:21:51;2.38;;;1.00;;
7563;SDS011;3823;53.586;10.040;2023-02-01T06:24:17;3.38;;;0.70;;
7563;SDS011;3823;53.586;10.040;2023-02-01T06:26:42;2.42;;;0.70;;
7563;SDS011;3823;53.586;10.040;2023-02-01T06:29:11;3.30;;;1.00;;
7563;SDS011;3823;53.586;10.040;2023-02-01T06:31:37;3.35;;;1.13;;
7563;SDS011;3823;53.586;10.040;2023-02-01T06:34:03;1.73;;;1.00;;
7563;SDS011;3823;53.586;10.040;2023-02-01T06:36:29;3.17;;;0.90;;
7563;SDS011;3823;53.586;10.040;2023-02-01T06:38:55;5.13;;;1.60;;
7563;SDS011;3823;53.586;10.040;2023-02-01T06:41:21;7.72;;;1.00;;
7563;SDS011;3823;53.586;10.040;2023-02-01T06:43:48;11.23;;;2.20;;
7563;SDS011;3823;53.586;10.040;2023-02-01T06:46:13;8.82;;;2.05;;
7563;SDS011;3823;53.586;10.040;2023-02-01T06:48:39;4.70;;;1.42;;
7563;SDS011;3823;53.586;10.040;2023-02-01T06:51:05;6.68;;;1.83;;
7563;SDS011;3823;53.586;10.040;2023-02-01T06:53:31;8.77;;;1.40;;
7563;SDS011;3823;53.586;10.040;2023-02-01T06:55:58;5.63;;;1.50;;
7563;SDS011;3823;53.586;10.040;2023-02-01T06:58:29;5.70;;;3.15;;
7563;SDS011;3823;53.586;10.040;2023-02-01T07:00:55;7.32;;;1.83;;
7563;SDS011;3823;53.586;10.040;2023-02-01T07:03:21;9.15;;;2.88;;
7563;SDS011;3823;53.586;10.040;2023-02-01T07:05:46;15.63;;;2.65;;
7563;SDS011;3823;53.586;10.040;2023-02-01T07:08:12;4.22;;;2.00;;
7563;SDS011;3823;53.586;10.040;2023-02-01T07:10:38;9.55;;;2.28;;
7563;SDS011;3823;53.586;10.040;2023-02-01T07:13:03;5.25;;;2.20;;
7563;SDS011;3823;53.586;10.040;2023-02-01T07:15:29;15.18;;;2.97;;
7563;SDS011;3823;53.586;10.040;2023-02-01T07:17:55;9.73;;;2.53;;
7563;SDS011;3823;53.586;10.040;2023-02-01T07:23:09;12.77;;;1.98;;
7563;SDS011;3823;53.586;10.040;2023-02-01T07:25:35;12.25;;;2.28;;
7563;SDS011;3823;53.586;10.040;2023-02-01T07:28:00;13.02;;;3.05;;
7563;SDS011;3823;53.586;10.040;2023-02-01T07:30:26;23.58;;;4.18;;
7563;SDS011;3823;53.586;10.040;2023-02-01T07:32:51;16.83;;;5.72;;
7563;SDS011;3823;53.586;10.040;2023-02-01T07:35:17;19.65;;;3.63;;
7563;SDS011;3823;53.586;10.040;2023-02-01T07:37:42;14.20;;;2.65;;
7563;SDS011;3823;53.586;10.040;2023-02-01T07:40:08;21.17;;;3.45;;
7563;SDS011;3823;53.586;10.040;2023-02-01T07:42:34;13.85;;;3.17;;
7563;SDS011;3823;53.586;10.040;2023-02-01T07:45:00;11.35;;;2.33;;
7563;SDS011;3823;53.586;10.040;2023-02-01T07:47:27;11.20;;;2.55;;
7563;SDS011;3823;53.586;10.040;2023-02-01T07:49:52;8.45;;;2.13;;
7563;SDS011;3823;53.586;10.040;2023-02-01T07:52:18;9.05;;;3.72;;
7563;SDS011;3823;53.586;10.040;2023-02-01T07:54:43;16.17;;;3.13;;
7563;SDS011;3823;53.586;10.040;2023-02-01T07:57:09;9.52;;;3.28;;
7563;SDS011;3823;53.586;10.040;2023-02-01T07:59:36;32.95;;;5.20;;
7563;SDS011;3823;53.586;10.040;2023-02-01T08:02:22;13.93;;;3.80;;
7563;SDS011;3823;53.586;10.040;2023-02-01T08:04:48;26.17;;;6.05;;
7563;SDS011;3823;53.586;10.040;2023-02-01T08:07:13;20.98;;;5.68;;
7563;SDS011;3823;53.586;10.040;2023-02-01T08:09:39;18.42;;;4.63;;
7563;SDS011;3823;53.586;10.040;2023-02-01T08:12:04;20.95;;;4.22;;
7563;SDS011;3823;53.586;10.040;2023-02-01T08:14:30;27.08;;;4.28;;
7563;SDS011;3823;53.586;10.040;2023-02-01T08:16:56;17.42;;;4.88;;
7563;SDS011;3823;53.586;10.040;2023-02-01T08:19:21;13.65;;;3.58;;
7563;SDS011;3823;53.586;10.040;2023-02-01T08:21:47;32.08;;;5.05;;
7563;SDS011;3823;53.586;10.040;2023-02-01T08:24:13;20.00;;;6.90;;
7563;SDS011;3823;53.586;10.040;2023-02-01T08:26:39;24.13;;;5.13;;
7563;SDS011;3823;53.586;10.040;2023-02-01T08:29:05;30.80;;;4.53;;
7563;SDS011;3823;53.586;10.040;2023-02-01T08:31:32;15.38;;;4.65;;
7563;SDS011;3823;53.586;10.040;2023-02-01T08:33:58;22.00;;;4.95;;
7563;SDS011;3823;53.586;10.040;2023-02-01T08:36:26;27.60;;;6.38;;
7563;SDS011;3823;53.586;10.040;2023-02-01T08:38:53;26.75;;;5.32;;
7563;SDS011;3823;53.586;10.040;2023-02-01T08:41:20;17.92;;;6.00;;
7563;SDS011;3823;53.586;10.040;2023-02-01T08:43:47;13.88;;;3.20;;
7563;SDS011;3823;53.586;10.040;2023-02-01T08:46:14;17.00;;;3.25;;
7563;SDS011;3823;53.586;10.040;2023-02-01T08:48:40;9.38;;;2.80;;
7563;SDS011;3823;53.586;10.040;2023-02-01T08:51:07;11.30;;;3.75;;
7563;SDS011;3823;53.586;10.040;2023-02-01T08:53:34;19.02;;;3.35;;
7563;SDS011;3823;53.586;10.040;2023-02-01T08:56:01;11.40;;;3.50;;
7563;SDS011;3823;53.586;10.040;2023-02-01T08:58:26;8.00;;;2.33;;
7563;SDS011;3823;53.586;10.040;2023-02-01T09:00:52;14.57;;;3.47;;
7563;SDS011;3823;53.586;10.040;2023-02-01T09:03:18;13.98;;;2.88;;
7563;SDS011;3823;53.586;10.040;2023-02-01T09:05:43;27.48;;;4.32;;
7563;SDS011;3823;53.586;10.040;2023-02-01T09:08:10;18.67;;;3.75;;
7563;SDS011;3823;53.586;10.040;2023-02-01T09:10:38;22.75;;;3.90;;
7563;SDS011;3823;53.586;10.040;2023-02-01T09:13:04;26.42;;;3.25;;
7563;SDS011;3823;53.586;10.040;2023-02-01T09:15:30;21.83;;;4.00;;
7563;SDS011;3823;53.586;10.040;2023-02-01T09:17:55;13.00;;;3.42;;
7563;SDS011;3823;53.586;10.040;2023-02-01T09:20:21;19.08;;;4.88;;
7563;SDS011;3823;53.586;10.040;2023-02-01T09:22:49;11.93;;;3.38;;
7563;SDS011;3823;53.586;10.040;2023-02-01T09:25:19;8.82;;;3.58;;
7563;SDS011;3823;53.586;10.040;2023-02-01T09:27:44;23.20;;;4.10;;
7563;SDS011;3823;53.586;10.040;2023-02-01T09:30:10;13.77;;;4.35;;
7563;SDS011;3823;53.586;10.040;2023-02-01T09:32:36;28.25;;;3.55;;
7563;SDS011;3823;53.586;10.040;2023-02-01T09:35:02;16.23;;;4.60;;
7563;SDS011;3823;53.586;10.040;2023-02-01T09:37:28;22.17;;;3.50;;
7563;SDS011;3823;53.586;10.040;2023-02-01T09:39:53;15.15;;;3.72;;
7563;SDS011;3823;53.586;10.040;2023-02-01T09:45:22;29.92;;;4.13;;
7563;SDS011;3823;53.586;10.040;2023-02-01T09:47:54;13.27;;;3.30;;
7563;SDS011;3823;53.586;10.040;2023-02-01T09:50:25;10.73;;;2.72;;
7563;SDS011;3823;53.586;10.040;2023-02-01T09:56:09;17.52;;;3.55;;
7563;SDS011;3823;53.586;10.040;2023-02-01T09:58:50;12.05;;;3.80;;
7563;SDS011;3823;53.586;10.040;2023-02-01T10:01:26;10.60;;;3.50;;
7563;SDS011;3823;53.586;10.040;2023-02-01T10:04:13;22.67;;;4.00;;
7563;SDS011;3823;53.586;10.040;2023-02-01T10:09:14;13.55;;;4.00;;
7563;SDS011;3823;53.586;10.040;2023-02-01T10:14:48;16.60;;;3.30;;
7563;SDS011;3823;53.586;10.040;2023-02-01T10:20:30;14.85;;;3.95;;
7563;SDS011;3823;53.586;10.040;2023-02-01T10:23:13;9.80;;;3.05;;
7563;SDS011;3823;53.586;10.040;2023-02-01T10:26:42;23.70;;;3.50;;
7563;SDS011;3823;53.586;10.040;2023-02-01T10:28:47;11.27;;;2.85;;
7563;SDS011;3823;53.586;10.040;2023-02-01T10:31:17;15.80;;;3.38;;
7563;SDS011;3823;53.586;10.040;2023-02-01T10:33:47;15.50;;;3.20;;
7563;SDS011;3823;53.586;10.040;2023-02-01T10:36:35;18.55;;;4.80;;
7563;SDS011;3823;53.586;10.040;2023-02-01T10:39:04;13.18;;;3.60;;
7563;SDS011;3823;53.586;10.040;2023-02-01T10:41:33;14.90;;;2.67;;
7563;SDS011;3823;53.586;10.040;2023-02-01T10:44:02;12.80;;;3.22;;
7563;SDS011;3823;53.586;10.040;2023-02-01T10:46:33;23.98;;;3.72;;
7563;SDS011;3823;53.586;10.040;2023-02-01T10:49:00;14.00;;;3.95;;
7563;SDS011;3823;53.586;10.040;2023-02-01T10:51:29;15.23;;;4.60;;
7563;SDS011;3823;53.586;10.040;2023-02-01T10:54:10;22.35;;;4.75;;
7563;SDS011;3823;53.586;10.040;2023-02-01T10:56:41;18.65;;;4.25;;
7563;SDS011;3823;53.586;10.040;2023-02-01T10:59:17;17.52;;;3.90;;
7563;SDS011;3823;53.586;10.040;2023-02-01T11:01:45;13.27;;;3.88;;
7563;SDS011;3823;53.586;10.040;2023-02-01T11:04:18;24.50;;;4.05;;
7563;SDS011;3823;53.586;10.040;2023-02-01T11:06:49;19.55;;;4.57;;
7563;SDS011;3823;53.586;10.040;2023-02-01T11:09:18;15.98;;;3.33;;
7563;SDS011;3823;53.586;10.040;2023-02-01T11:16:54;16.65;;;4.35;;
7563;SDS011;3823;53.586;10.040;2023-02-01T11:19:22;15.55;;;3.67;;
7563;SDS011;3823;53.586;10.040;2023-02-01T11:21:49;19.65;;;3.72;;
7563;SDS011;3823;53.586;10.040;2023-02-01T11:24:23;17.38;;;3.95;;
7563;SDS011;3823;53.586;10.040;2023-02-01T11:26:58;18.65;;;4.88;;
7563;SDS011;3823;53.586;10.040;2023-02-01T11:29:28;11.32;;;2.95;;
7563;SDS011;3823;53.586;10.040;2023-02-01T11:32:03;15.40;;;3.78;;
7563;SDS011;3823;53.586;10.040;2023-02-01T11:34:35;23.25;;;4.05;;
7563;SDS011;3823;53.586;10.040;2023-02-01T11:37:17;23.27;;;3.88;;
7563;SDS011;3823;53.586;10.040;2023-02-01T11:39:59;12.35;;;3.13;;
7563;SDS011;3823;53.586;10.040;2023-02-01T11:42:26;18.00;;;3.13;;
7563;SDS011;3823;53.586;10.040;2023-02-01T11:45:16;16.77;;;4.20;;
7563;SDS011;3823;53.586;10.040;2023-02-01T11:47:46;19.65;;;3.97;;
7563;SDS011;3823;53.586;10.040;2023-02-01T11:50:18;12.98;;;3.33;;
7563;SDS011;3823;53.586;10.040;2023-02-01T11:56:03;10.18;;;3.05;;
7563;SDS011;3823;53.586;10.040;2023-02-01T12:12:34;9.95;;;2.85;;
7563;SDS011;3823;53.586;10.040;2023-02-01T12:15:22;9.77;;;2.03;;
7563;SDS011;3823;53.586;10.040;2023-02-01T12:18:03;10.75;;;2.15;;
7563;SDS011;3823;53.586;10.040;2023-02-01T12:21:05;13.18;;;2.00;;
7563;SDS011;3823;53.586;10.040;2023-02-01T12:23:54;12.52;;;2.13;;
7563;SDS011;3823;53.586;10.040;2023-02-01T12:26:47;6.15;;;2.22;;
7563;SDS011;3823;53.586;10.040;2023-02-01T12:34:49;7.60;;;1.98;;
7563;SDS011;3823;53.586;10.040;2023-02-01T12:40:57;9.88;;;1.70;;
7563;SDS011;3823;53.586;10.040;2023-02-01T12:43:39;11.82;;;3.15;;
7563;SDS011;3823;53.586;10.040;2023-02-01T12:48:56;5.78;;;0.93;;
7563;SDS011;3823;53.586;10.040;2023-02-01T12:51:37;1.20;;;0.70;;
7563;SDS011;3823;53.586;10.040;2023-02-01T12:54:09;1.45;;;0.80;;
7563;SDS011;3823;53.586;10.040;2023-02-01T12:56:55;3.40;;;1.17;;
7563;SDS011;3823;53.586;10.040;2023-02-01T13:02:00;3.67;;;0.60;;
7563;SDS011;3823;53.586;10.040;2023-02-01T13:07:38;2.15;;;0.60;;
7563;SDS011;3823;53.586;10.040;2023-02-01T13:13:09;2.42;;;0.70;;
7563;SDS011;3823;53.586;10.040;2023-02-01T13:15:48;1.40;;;1.10;;
7563;SDS011;3823;53.586;10.040;2023-02-01T13:18:21;2.25;;;0.75;;
7563;SDS011;3823;53.586;10.040;2023-02-01T13:21:07;3.53;;;0.63;;
7563;SDS011;3823;53.586;10.040;2023-02-01T13:23:38;3.75;;;1.17;;
7563;SDS011;3823;53.586;10.040;2023-02-01T13:26:05;1.80;;;0.60;;
7563;SDS011;3823;53.586;10.040;2023-02-01T13:42:45;2.95;;;0.68;;
7563;SDS011;3823;53.586;10.040;2023-02-01T13:47:57;2.45;;;0.60;;
7563;SDS011;3823;53.586;10.040;2023-02-01T13:53:02;1.60;;;0.65;;
7563;SDS011;3823;53.586;10.040;2023-02-01T13:58:34;2.13;;;0.93;;
7563;SDS011;3823;53.586;10.040;2023-02-01T14:01:31;3.45;;;0.60;;
7563;SDS011;3823;53.586;10.040;2023-02-01T14:03:52;2.70;;;1.10;;
7563;SDS011;3823;53.586;10.040;2023-02-01T14:16:41;2.55;;;0.80;;
7563;SDS011;3823;53.586;10.040;2023-02-01T14:19:23;1.13;;;0.70;;
7563;SDS011;3823;53.586;10.040;2023-02-01T14:21:54;2.05;;;0.90;;
7563;SDS011;3823;53.586;10.040;2023-02-01T14:24:35;3.28;;;0.90;;
7563;SDS011;3823;53.586;10.040;2023-02-01T14:29:37;1.25;;;1.10;;
7563;SDS011;3823;53.586;10.040;2023-02-01T14:32:11;5.40;;;0.95;;
7563;SDS011;3823;53.586;10.040;2023-02-01T14:42:15;4.53;;;0.93;;
7563;SDS011;3823;53.586;10.040;2023-02-01T14:44:53;7.25;;;0.85;;
7563;SDS011;3823;53.586;10.040;2023-02-01T14:52:20;10.75;;;1.55;;
7563;SDS011;3823;53.586;10.040;2023-02-01T14:54:54;6.55;;;1.95;;
7563;SDS011;3823;53.586;10.040;2023-02-01T14:57:25;8.82;;;1.42;;
7563;SDS011;3823;53.586;10.040;2023-02-01T14:59:55;6.47;;;1.23;;
7563;SDS011;3823;53.586;10.040;2023-02-01T15:02:30;5.28;;;1.73;;
7563;SDS011;3823;53.586;10.040;2023-02-01T15:04:59;7.70;;;1.50;;
7563;SDS011;3823;53.586;10.040;2023-02-01T15:07:25;13.00;;;2.88;;
7563;SDS011;3823;53.586;10.040;2023-02-01T15:09:52;10.73;;;1.92;;
7563;SDS011;3823;53.586;10.040;2023-02-01T15:12:25;12.57;;;1.92;;
7563;SDS011;3823;53.586;10.040;2023-02-01T15:15:10;9.52;;;4.20;;
7563;SDS011;3823;53.586;10.040;2023-02-01T15:17:36;16.25;;;2.17;;
7563;SDS011;3823;53.586;10.040;2023-02-01T15:22:36;5.57;;;1.73;;
7563;SDS011;3823;53.586;10.040;2023-02-01T15:25:01;15.27;;;2.80;;
7563;SDS011;3823;53.586;10.040;2023-02-01T15:27:28;6.45;;;2.83;;
7563;SDS011;3823;53.586;10.040;2023-02-01T15:30:04;6.50;;;2.00;;
7563;SDS011;3823;53.586;10.040;2023-02-01T15:32:33;13.55;;;1.73;;
7563;SDS011;3823;53.586;10.040;2023-02-01T15:35:00;5.32;;;1.25;;
7563;SDS011;3823;53.586;10.040;2023-02-01T15:37:27;6.05;;;2.13;;
7563;SDS011;3823;53.586;10.040;2023-02-01T15:42:34;13.52;;;2.22;;
7563;SDS011;3823;53.586;10.040;2023-02-01T15:45:02;8.10;;;2.25;;
7563;SDS011;3823;53.586;10.040;2023-02-01T15:47:29;10.23;;;1.70;;
7563;SDS011;3823;53.586;10.040;2023-02-01T15:49:57;16.48;;;1.77;;
7563;SDS011;3823;53.586;10.040;2023-02-01T15:54:55;9.73;;;2.10;;
7563;SDS011;3823;53.586;10.040;2023-02-01T15:57:27;16.33;;;2.80;;
7563;SDS011;3823;53.586;10.040;2023-02-01T15:59:57;10.43;;;2.28;;
7563;SDS011;3823;53.586;10.040;2023-02-01T16:04:59;30.70;;;5.53;;
7563;SDS011;3823;53.586;10.040;2023-02-01T16:07:27;13.10;;;2.38;;
7563;SDS011;3823;53.586;10.040;2023-02-01T16:09:55;10.20;;;2.30;;
7563;SDS011;3823;53.586;10.040;2023-02-01T16:12:45;10.40;;;2.85;;
7563;SDS011;3823;53.586;10.040;2023-02-01T16:15:11;11.77;;;2.78;;
7563;SDS011;3823;53.586;10.040;2023-02-01T16:17:43;12.30;;;3.50;;
7563;SDS011;3823;53.586;10.040;2023-02-01T16:20:10;8.57;;;2.50;;
7563;SDS011;3823;53.586;10.040;2023-02-01T16:22:36;14.52;;;2.60;;
7563;SDS011;3823;53.586;10.040;2023-02-01T16:25:02;15.65;;;2.67;;
7563;SDS011;3823;53.586;10.040;2023-02-01T16:27:28;13.82;;;2.65;;
7563;SDS011;3823;53.586;10.040;2023-02-01T16:29:56;14.32;;;4.40;;
7563;SDS011;3823;53.586;10.040;2023-02-01T16:32:22;22.17;;;3.00;;
7563;SDS011;3823;53.586;10.040;2023-02-01T16:34:47;16.05;;;3.28;;
7563;SDS011;3823;53.586;10.040;2023-02-01T16:37:19;9.38;;;2.80;;
7563;SDS011;3823;53.586;10.040;2023-02-01T16:39:46;11.45;;;4.05;;
7563;SDS011;3823;53.586;10.040;2023-02-01T16:42:12;13.68;;;3.47;;
7563;SDS011;3823;53.586;10.040;2023-02-01T16:44:39;15.57;;;4.00;;
7563;SDS011;3823;53.586;10.040;2023-02-01T16:47:12;11.50;;;2.78;;
7563;SDS011;3823;53.586;10.040;2023-02-01T16:49:47;10.75;;;4.28;;
7563;SDS011;3823;53.586;10.040;2023-02-01T16:52:17;19.55;;;3.78;;
7563;SDS011;3823;53.586;10.040;2023-02-01T16:54:45;26.20;;;4.93;;
7563;SDS011;3823;53.586;10.040;2023-02-01T16:57:12;15.73;;;3.70;;
7563;SDS011;3823;53.586;10.040;2023-02-01T16:59:39;17.73;;;2.90;;
7563;SDS011;3823;53.586;10.040;2023-02-01T17:02:06;20.60;;;4.55;;
7563;SDS011;3823;53.586;10.040;2023-02-01T17:04:35;12.75;;;4.60;;
7563;SDS011;3823;53.586;10.040;2023-02-01T17:07:00;17.40;;;3.45;;
7563;SDS011;3823;53.586;10.040;2023-02-01T17:09:33;16.90;;;3.58;;
7563;SDS011;3823;53.586;10.040;2023-02-01T17:12:00;29.73;;;6.20;;
7563;SDS011;3823;53.586;10.040;2023-02-01T17:14:26;14.93;;;3.58;;
7563;SDS011;3823;53.586;10.040;2023-02-01T17:16:52;22.58;;;4.20;;
7563;SDS011;3823;53.586;10.040;2023-02-01T17:19:19;19.45;;;4.70;;
7563;SDS011;3823;53.586;10.040;2023-02-01T17:21:48;26.40;;;6.00;;
7563;SDS011;3823;53.586;10.040;2023-02-01T17:24:18;21.20;;;4.68;;
7563;SDS011;3823;53.586;10.040;2023-02-01T17:26:45;25.20;;;3.50;;
7563;SDS011;3823;53.586;10.040;2023-02-01T17:29:11;31.30;;;6.40;;
7563;SDS011;3823;53.586;10.040;2023-02-01T17:31:38;25.00;;;5.05;;